Time;durP1;ratioP1;P1;durP2;ratioP2;P2;SDS_P1;SDS_P2;PMS_P1;PMS_P2;Temp;Humidity;BMP_temperature;BMP_pressure;BME280_temperature;BME280_humidity;BME280_pressure;Samples;Min_cycle;Max_cycle;Signal;HPM_P1;HPM_P2
2022/06/30 00:01:38;;;;;;;3.17;2.50;;;25.30;58.90;;;;;;4493606;31;20077;-68
2022/06/30 00:04:04;;;;;;;4.22;2.75;;;25.40;58.90;;;;;;4493484;31;20065;-68
2022/06/30 00:06:30;;;;;;;4.45;2.53;;;25.30;58.90;;;;;;4493171;31;20552;-68
2022/06/30 00:08:55;;;;;;;4.15;2.20;;;25.30;58.90;;;;;;4492545;31;20061;-68
2022/06/30 00:11:22;;;;;;;2.42;2.22;;;25.30;58.90;;;;;;4493026;31;20080;-68
2022/06/30 00:13:49;;;;;;;3.00;2.47;;;25.30;58.90;;;;;;4493621;31;20223;-68
2022/06/30 00:16:15;;;;;;;3.35;2.38;;;25.30;58.90;;;;;;4493281;31;20212;-68
2022/06/30 00:18:41;;;;;;;3.85;2.53;;;25.30;58.90;;;;;;4493241;31;20099;-68
2022/06/30 00:21:07;;;;;;;2.63;2.42;;;25.30;58.90;;;;;;4493412;31;20490;-68
2022/06/30 00:23:33;;;;;;;3.17;2.70;;;25.30;58.90;;;;;;4492768;31;20093;-68
2022/06/30 00:25:59;;;;;;;2.40;2.10;;;25.30;58.90;;;;;;4493336;31;20065;-68
2022/06/30 00:28:25;;;;;;;3.10;2.65;;;25.30;58.90;;;;;;4493119;31;20573;-69
2022/06/30 00:30:52;;;;;;;2.80;2.40;;;25.30;58.90;;;;;;4493009;31;20081;-68
2022/06/30 00:33:18;;;;;;;2.88;2.65;;;25.30;58.90;;;;;;4493032;31;20077;-68
2022/06/30 00:35:45;;;;;;;3.53;2.70;;;25.30;58.90;;;;;;4492734;31;20147;-68
2022/06/30 00:38:12;;;;;;;2.78;2.25;;;25.30;58.90;;;;;;4492957;31;20077;-69
2022/06/30 00:40:40;;;;;;;3.25;2.28;;;25.30;58.90;;;;;;4493198;31;20538;-68
2022/06/30 00:43:06;;;;;;;3.83;2.60;;;25.30;58.90;;;;;;4492855;31;20069;-70
2022/06/30 00:45:38;;;;;;;2.72;2.42;;;25.30;58.90;;;;;;4492405;31;20092;-68
2022/06/30 00:48:04;;;;;;;3.15;2.40;;;25.30;58.90;;;;;;4492915;31;20499;-68
2022/06/30 00:50:30;;;;;;;4.35;2.45;;;25.30;58.90;;;;;;4491504;31;20152;-68
2022/06/30 00:52:57;;;;;;;2.72;2.47;;;25.30;58.90;;;;;;4492784;31;20604;-68
2022/06/30 00:55:25;;;;;;;2.47;2.28;;;25.30;58.90;;;;;;4492682;31;20092;-68
2022/06/30 00:57:52;;;;;;;2.55;2.35;;;25.30;58.90;;;;;;4492701;31;20175;-68
2022/06/30 01:00:18;;;;;;;2.90;2.20;;;25.30;59.90;;;;;;4492610;31;20253;-68
2022/06/30 01:02:44;;;;;;;2.67;2.13;;;25.20;58.80;;;;;;4492900;31;20077;-68
2022/06/30 01:05:09;;;;;;;2.70;2.47;;;25.30;58.90;;;;;;4492559;31;20100;-67
2022/06/30 01:07:35;;;;;;;2.55;2.33;;;25.20;58.80;;;;;;4492788;31;20083;-67
2022/06/30 01:12:51;;;;;;;2.58;2.35;;;25.30;58.90;;;;;;4492845;31;20081;-68
2022/06/30 01:15:20;;;;;;;2.97;2.15;;;25.20;58.80;;;;;;4492421;31;20068;-68
2022/06/30 01:17:48;;;;;;;2.67;2.40;;;25.20;58.80;;;;;;4492378;31;20087;-68
2022/06/30 01:20:16;;;;;;;2.72;2.40;;;25.20;58.80;;;;;;4492283;31;20166;-68
2022/06/30 01:22:43;;;;;;;2.80;2.30;;;25.20;58.90;;;;;;4491269;31;20104;-70
2022/06/30 01:25:09;;;;;;;2.58;2.38;;;25.20;58.90;;;;;;4492306;31;20097;-68
2022/06/30 01:27:36;;;;;;;2.42;2.22;;;25.20;58.90;;;;;;4492533;31;20100;-68
2022/06/30 01:30:03;;;;;;;2.80;1.90;;;25.20;58.90;;;;;;4492388;31;20309;-68
2022/06/30 01:32:29;;;;;;;2.65;2.05;;;25.20;58.90;;;;;;4492062;31;20084;-68
2022/06/30 01:34:56;;;;;;;3.40;2.78;;;25.20;58.90;;;;;;4492234;31;20185;-68
2022/06/30 01:37:23;;;;;;;2.50;2.30;;;25.20;58.90;;;;;;4491831;31;20069;-68
2022/06/30 01:39:49;;;;;;;2.40;2.20;;;25.20;58.90;;;;;;4477712;31;20095;-68
2022/06/30 01:42:15;;;;;;;2.38;2.00;;;25.20;58.90;;;;;;4491940;31;20069;-68
2022/06/30 01:44:41;;;;;;;3.05;2.25;;;25.20;58.80;;;;;;4491859;31;20178;-68
2022/06/30 01:47:09;;;;;;;2.30;2.10;;;25.20;58.90;;;;;;4492092;31;20096;-68
2022/06/30 01:49:36;;;;;;;2.30;2.10;;;25.20;58.80;;;;;;4490685;31;20226;-72
2022/06/30 01:52:03;;;;;;;2.50;2.28;;;25.20;58.80;;;;;;4492009;31;20088;-68
2022/06/30 01:54:29;;;;;;;2.63;1.98;;;25.10;58.80;;;;;;4492178;31;20202;-68
2022/06/30 01:56:55;;;;;;;2.63;2.42;;;25.10;58.80;;;;;;4492001;31;20402;-68
2022/06/30 01:59:20;;;;;;;2.22;2.03;;;25.10;58.80;;;;;;4491996;31;20565;-68
2022/06/30 02:01:46;;;;;;;3.45;1.98;;;25.10;58.80;;;;;;4491925;31;20158;-68
2022/06/30 02:06:57;;;;;;;2.70;2.17;;;25.10;58.80;;;;;;4492201;32;20124;-68
2022/06/30 02:09:22;;;;;;;2.22;2.03;;;25.10;58.80;;;;;;4491934;32;20528;-68
2022/06/30 02:12:44;;;;;;;2.90;2.17;;;25.10;58.80;;;;;;4491871;32;20126;-68
2022/06/30 02:14:34;;;;;;;3.95;2.30;;;25.10;58.80;;;;;;4491755;32;20077;-68
2022/06/30 02:17:00;;;;;;;2.40;2.20;;;25.10;58.80;;;;;;4491570;32;20127;-68
2022/06/30 02:19:25;;;;;;;2.38;2.17;;;25.10;58.90;;;;;;4491804;32;20069;-68
2022/06/30 02:21:51;;;;;;;2.30;2.10;;;25.10;58.80;;;;;;4492017;32;20386;-69
2022/06/30 02:24:17;;;;;;;3.08;2.38;;;25.10;58.80;;;;;;4492426;32;20407;-68
2022/06/30 02:26:43;;;;;;;2.35;2.15;;;25.10;58.80;;;;;;4491943;32;20065;-69
2022/06/30 02:29:08;;;;;;;2.83;2.25;;;25.10;58.80;;;;;;4491911;32;20186;-68
2022/06/30 02:31:34;;;;;;;2.17;1.90;;;25.10;58.80;;;;;;4491873;32;20178;-68
2022/06/30 02:34:00;;;;;;;2.20;2.00;;;25.10;58.80;;;;;;4491668;32;20238;-68
2022/06/30 02:36:26;;;;;;;2.13;2.00;;;25.00;58.70;;;;;;4491907;32;20099;-68
2022/06/30 02:38:51;;;;;;;2.65;2.25;;;25.00;58.70;;;;;;4491486;32;20096;-70
2022/06/30 02:41:17;;;;;;;1.98;1.88;;;25.00;58.70;;;;;;4491621;32;20061;-69
2022/06/30 02:43:43;;;;;;;2.50;2.30;;;25.00;58.80;;;;;;4491648;32;20087;-68
2022/06/30 02:46:09;;;;;;;2.05;1.85;;;25.00;58.70;;;;;;4491172;32;20065;-69
2022/06/30 02:48:35;;;;;;;1.95;1.75;;;25.00;58.80;;;;;;4494677;31;20104;-69
2022/06/30 02:51:01;;;;;;;2.20;1.95;;;25.00;58.80;;;;;;4494387;31;20077;-69
2022/06/30 02:53:27;;;;;;;2.95;2.35;;;25.00;58.80;;;;;;4493477;31;20073;-69
2022/06/30 02:55:53;;;;;;;2.42;2.05;;;25.00;58.80;;;;;;4494487;31;20081;-68
2022/06/30 02:58:19;;;;;;;2.20;2.00;;;25.00;58.80;;;;;;4494431;31;20449;-69
2022/06/30 03:00:45;;;;;;;2.10;1.95;;;25.00;58.80;;;;;;4493094;31;20368;-68
2022/06/30 03:03:10;;;;;;;2.25;1.75;;;25.00;58.80;;;;;;4494462;31;20155;-69
2022/06/30 03:05:36;;;;;;;2.20;2.00;;;25.00;58.80;;;;;;4494389;31;20080;-69
2022/06/30 03:08:02;;;;;;;2.03;1.92;;;25.00;58.80;;;;;;4494347;31;20203;-69
2022/06/30 03:10:28;;;;;;;2.10;1.88;;;25.00;58.80;;;;;;4494498;31;20077;-69
2022/06/30 03:12:53;;;;;;;1.90;1.80;;;25.00;58.80;;;;;;4494499;31;20135;-69
2022/06/30 03:15:19;;;;;;;2.10;1.90;;;25.00;58.80;;;;;;4494204;31;20116;-69
2022/06/30 03:17:45;;;;;;;1.95;1.85;;;25.00;58.80;;;;;;4494483;31;20076;-68
2022/06/30 03:20:11;;;;;;;1.80;1.70;;;25.00;58.90;;;;;;4494142;31;20159;-69
2022/06/30 03:22:36;;;;;;;2.03;1.92;;;25.00;58.80;;;;;;4494394;31;20208;-68
2022/06/30 03:25:02;;;;;;;2.28;2.00;;;25.00;58.80;;;;;;4494096;31;20077;-68
2022/06/30 03:27:28;;;;;;;2.30;2.10;;;25.00;58.90;;;;;;4493793;31;20073;-69
2022/06/30 03:29:54;;;;;;;1.77;1.67;;;25.00;58.80;;;;;;4492911;31;20376;-69
2022/06/30 03:32:20;;;;;;;1.90;1.77;;;24.90;58.80;;;;;;4479542;31;20234;-69
2022/06/30 03:34:45;;;;;;;1.90;1.80;;;24.90;58.80;;;;;;4493981;31;20077;-68
2022/06/30 03:37:11;;;;;;;2.00;1.90;;;24.90;58.80;;;;;;4493894;31;20073;-69
2022/06/30 03:39:37;;;;;;;2.47;2.00;;;24.90;58.80;;;;;;4493873;31;20073;-68
2022/06/30 03:42:03;;;;;;;2.30;2.10;;;24.90;58.80;;;;;;4493820;31;20206;-69
2022/06/30 03:44:29;;;;;;;3.10;2.05;;;24.90;58.80;;;;;;4493269;31;20116;-69
2022/06/30 03:46:56;;;;;;;2.28;2.08;;;24.90;58.80;;;;;;4494037;31;20132;-69
2022/06/30 03:49:23;;;;;;;1.92;1.80;;;24.90;58.80;;;;;;4493903;31;20085;-69
2022/06/30 03:51:49;;;;;;;2.58;2.08;;;24.90;58.90;;;;;;4493619;31;20226;-69
2022/06/30 03:54:15;;;;;;;2.20;2.00;;;24.90;58.80;;;;;;4493625;31;20177;-69
2022/06/30 03:56:41;;;;;;;2.28;1.88;;;24.90;58.80;;;;;;4493596;31;20604;-69
2022/06/30 03:59:07;;;;;;;2.13;1.85;;;24.90;58.90;;;;;;4493072;31;20465;-69
2022/06/30 04:01:32;;;;;;;2.15;1.90;;;24.90;58.90;;;;;;4493549;31;20057;-68
2022/06/30 04:03:58;;;;;;;2.33;1.80;;;24.90;58.80;;;;;;4493558;31;20077;-68
2022/06/30 04:06:24;;;;;;;1.80;1.70;;;24.90;58.80;;;;;;4493759;31;20548;-69
2022/06/30 04:08:50;;;;;;;1.90;1.80;;;24.90;58.90;;;;;;4493428;31;20069;-69
2022/06/30 04:11:15;;;;;;;2.00;1.80;;;24.90;58.80;;;;;;4493539;31;20080;-69
2022/06/30 04:13:41;;;;;;;1.92;1.80;;;24.80;58.80;;;;;;4492303;31;20589;-68
2022/06/30 04:16:07;;;;;;;2.00;1.80;;;24.90;58.90;;;;;;4493345;31;20081;-69
2022/06/30 04:18:33;;;;;;;1.63;1.52;;;24.80;58.80;;;;;;4493324;31;20469;-69
2022/06/30 04:20:59;;;;;;;2.63;1.98;;;24.80;58.80;;;;;;4493408;31;20154;-69
2022/06/30 04:23:24;;;;;;;2.42;1.75;;;24.90;58.80;;;;;;4492920;31;20151;-69
2022/06/30 04:25:50;;;;;;;1.73;1.63;;;24.80;58.80;;;;;;4492113;31;20113;-68
2022/06/30 04:28:16;;;;;;;1.80;1.70;;;24.80;58.80;;;;;;4491804;31;20207;-69
2022/06/30 04:33:26;;;;;;;2.20;2.00;;;24.80;58.80;;;;;;4493424;31;20088;-68
2022/06/30 04:35:52;;;;;;;2.10;1.63;;;24.80;58.80;;;;;;4493032;31;20162;-69
2022/06/30 04:38:18;;;;;;;1.80;1.70;;;24.80;59.70;;;;;;4492695;31;20081;-69
2022/06/30 04:43:28;;;;;;;2.15;1.95;;;24.80;58.80;;;;;;4492978;31;20074;-69
2022/06/30 04:45:54;;;;;;;2.00;1.70;;;24.80;58.80;;;;;;4492445;31;20157;-69
2022/06/30 04:48:20;;;;;;;2.08;1.60;;;24.80;58.70;;;;;;4492910;31;20081;-69
2022/06/30 04:50:46;;;;;;;1.90;1.80;;;24.80;58.80;;;;;;4492584;31;20073;-68
2022/06/30 04:53:12;;;;;;;1.80;1.70;;;24.80;58.80;;;;;;4492768;31;20079;-69
2022/06/30 04:55:39;;;;;;;1.95;1.80;;;24.80;58.80;;;;;;4492766;31;20070;-68
2022/06/30 04:58:05;;;;;;;1.80;1.70;;;24.80;58.70;;;;;;4492718;31;20081;-69
2022/06/30 05:00:31;;;;;;;2.10;1.90;;;24.80;58.80;;;;;;4492926;31;20077;-68
2022/06/30 05:02:57;;;;;;;2.03;1.75;;;24.80;58.70;;;;;;4492960;31;20089;-69
2022/06/30 05:05:23;;;;;;;2.05;1.58;;;24.80;58.80;;;;;;4492310;31;20158;-69
2022/06/30 05:07:49;;;;;;;1.50;1.40;;;24.80;58.70;;;;;;4492636;31;20166;-69
2022/06/30 05:10:15;;;;;;;2.42;1.83;;;24.80;58.70;;;;;;4491956;31;20104;-68
2022/06/30 05:12:41;;;;;;;2.20;1.60;;;24.80;58.70;;;;;;4492452;31;20117;-69
2022/06/30 05:15:07;;;;;;;1.85;1.70;;;24.80;59.60;;;;;;4492142;31;20073;-68
2022/06/30 05:17:34;;;;;;;1.85;1.60;;;24.80;58.70;;;;;;4492528;31;20077;-68
2022/06/30 05:20:00;;;;;;;1.60;1.50;;;24.80;58.70;;;;;;4492071;31;20438;-68
2022/06/30 05:22:26;;;;;;;2.15;1.70;;;24.80;59.60;;;;;;4492588;31;20076;-69
2022/06/30 05:27:36;;;;;;;3.00;1.52;;;24.80;58.70;;;;;;4492705;31;20076;-68
2022/06/30 05:30:02;;;;;;;1.42;1.33;;;24.80;58.70;;;;;;4492178;31;20576;-68
2022/06/30 05:32:28;;;;;;;1.80;1.70;;;24.80;58.70;;;;;;4491981;31;20128;-67
2022/06/30 05:34:54;;;;;;;1.67;1.40;;;24.80;58.70;;;;;;4492482;31;20191;-70
2022/06/30 05:37:20;;;;;;;2.10;1.88;;;24.80;58.70;;;;;;4492110;31;20076;-69
2022/06/30 05:39:46;;;;;;;1.95;1.67;;;24.80;58.70;;;;;;4492108;31;20084;-68
2022/06/30 05:42:11;;;;;;;1.75;1.60;;;24.80;58.70;;;;;;4491829;31;20200;-69
2022/06/30 05:44:37;;;;;;;1.60;1.50;;;24.80;58.60;;;;;;4491729;31;20093;-68
2022/06/30 05:47:03;;;;;;;1.98;1.38;;;24.80;58.70;;;;;;4492070;31;20069;-68
2022/06/30 05:49:29;;;;;;;2.08;1.88;;;24.80;58.70;;;;;;4492016;31;20088;-68
2022/06/30 05:51:56;;;;;;;2.15;1.50;;;24.80;58.70;;;;;;4491883;31;20072;-68
2022/06/30 05:54:22;;;;;;;1.70;1.60;;;24.80;58.70;;;;;;4492017;31;20131;-68
2022/06/30 05:56:48;;;;;;;1.95;1.58;;;24.80;58.60;;;;;;4492004;31;20391;-68
2022/06/30 05:59:14;;;;;;;2.60;1.70;;;24.80;58.60;;;;;;4492174;31;20069;-68
2022/06/30 06:01:40;;;;;;;1.85;1.60;;;24.90;58.60;;;;;;4490487;31;20123;-68
2022/06/30 06:04:06;;;;;;;1.98;1.60;;;24.80;58.60;;;;;;4492082;31;20203;-68
2022/06/30 06:06:31;;;;;;;1.90;1.50;;;24.90;58.60;;;;;;4491628;32;20131;-69
2022/06/30 06:08:57;;;;;;;2.10;1.90;;;24.90;58.60;;;;;;4491605;32;20502;-68
2022/06/30 06:11:23;;;;;;;1.48;1.38;;;24.90;58.60;;;;;;4491813;32;20065;-69
2022/06/30 06:13:49;;;;;;;1.42;1.33;;;24.90;58.50;;;;;;4491881;32;20073;-68
2022/06/30 06:16:15;;;;;;;1.70;1.60;;;24.90;58.50;;;;;;4491784;32;20403;-68
2022/06/30 06:18:40;;;;;;;1.80;1.70;;;24.90;58.50;;;;;;4491581;32;20211;-68
2022/06/30 06:21:06;;;;;;;1.63;1.52;;;25.00;58.60;;;;;;4492028;31;20128;-68
2022/06/30 06:23:32;;;;;;;1.85;1.67;;;25.00;58.50;;;;;;4494675;31;20214;-70
2022/06/30 06:25:58;;;;;;;2.03;1.60;;;25.00;58.50;;;;;;4495013;31;20130;-68
2022/06/30 06:31:08;;;;;;;1.60;1.50;;;25.00;58.50;;;;;;4494977;31;20099;-68
2022/06/30 06:33:34;;;;;;;1.95;1.67;;;25.00;58.20;;;;;;4494541;31;20482;-68
2022/06/30 06:36:01;;;;;;;2.95;1.60;;;25.10;58.10;;;;;;4494814;31;20065;-68
2022/06/30 06:38:27;;;;;;;2.17;1.77;;;25.10;57.80;;;;;;4494762;31;20096;-68
2022/06/30 06:40:53;;;;;;;1.77;1.63;;;25.20;57.50;;;;;;4494770;31;20226;-69
2022/06/30 06:43:19;;;;;;;6.78;2.15;;;25.20;57.20;;;;;;4494698;31;20380;-69
2022/06/30 06:45:45;;;;;;;4.95;2.08;;;25.20;57.00;;;;;;4494292;31;20069;-69
2022/06/30 06:48:11;;;;;;;2.47;1.90;;;25.20;56.80;;;;;;4494879;31;20057;-69
2022/06/30 06:50:37;;;;;;;3.20;2.08;;;25.20;56.60;;;;;;4493462;31;20085;-68
2022/06/30 06:53:03;;;;;;;5.25;2.08;;;25.30;56.40;;;;;;4494588;31;20429;-69
2022/06/30 06:55:30;;;;;;;4.43;2.22;;;25.30;56.30;;;;;;4494817;31;20510;-69
2022/06/30 06:57:56;;;;;;;3.33;2.20;;;25.30;56.10;;;;;;4493667;31;20088;-71
2022/06/30 07:00:22;;;;;;;6.82;2.38;;;25.30;56.00;;;;;;4494194;31;20097;-69
2022/06/30 07:02:48;;;;;;;7.50;2.80;;;25.40;56.00;;;;;;4494430;31;20065;-69
2022/06/30 07:05:13;;;;;;;2.28;1.80;;;25.40;55.70;;;;;;4494670;31;20557;-69
2022/06/30 07:07:40;;;;;;;4.40;2.17;;;25.40;55.70;;;;;;4494097;31;20079;-70
2022/06/30 07:10:07;;;;;;;4.13;2.20;;;25.50;55.60;;;;;;4494241;31;20406;-69
2022/06/30 07:12:34;;;;;;;4.00;2.03;;;25.50;55.30;;;;;;4494588;31;20254;-69
2022/06/30 07:15:00;;;;;;;8.35;2.30;;;25.50;55.30;;;;;;4494212;31;20506;-70
2022/06/30 07:17:26;;;;;;;4.47;2.15;;;25.50;55.30;;;;;;4494200;31;20065;-69
2022/06/30 07:19:51;;;;;;;5.72;3.03;;;25.50;55.30;;;;;;4493892;31;20108;-69
2022/06/30 07:22:17;;;;;;;7.03;2.63;;;25.50;55.30;;;;;;4494006;31;20076;-69
2022/06/30 07:24:44;;;;;;;3.30;2.30;;;25.50;55.20;;;;;;4493854;31;20143;-69
2022/06/30 07:27:09;;;;;;;7.43;2.42;;;25.50;55.20;;;;;;4493808;31;20088;-69
2022/06/30 07:29:35;;;;;;;5.95;2.78;;;25.50;55.30;;;;;;4494032;31;20061;-69
2022/06/30 07:32:01;;;;;;;3.53;2.53;;;25.50;55.40;;;;;;4493866;31;20097;-69
2022/06/30 07:34:27;;;;;;;4.43;2.40;;;25.50;55.50;;;;;;4493104;31;20611;-69
2022/06/30 07:36:53;;;;;;;3.85;2.72;;;25.50;55.60;;;;;;4493984;31;20494;-69
2022/06/30 07:39:19;;;;;;;6.00;2.60;;;25.50;55.70;;;;;;4493073;31;20151;-69
2022/06/30 07:41:45;;;;;;;6.72;2.50;;;25.50;55.80;;;;;;4493603;31;20219;-69
2022/06/30 07:44:11;;;;;;;4.38;2.35;;;25.60;57.00;;;;;;4493783;31;20065;-69
2022/06/30 07:46:36;;;;;;;5.25;2.35;;;25.60;56.20;;;;;;4493912;31;20214;-71
2022/06/30 07:49:02;;;;;;;5.32;3.17;;;25.60;56.40;;;;;;4493744;31;20095;-73
2022/06/30 07:51:28;;;;;;;4.07;2.90;;;25.70;56.60;;;;;;4493537;31;20075;-73
2022/06/30 07:53:55;;;;;;;3.58;2.55;;;25.70;56.50;;;;;;4493954;31;20085;-73
2022/06/30 07:56:21;;;;;;;7.82;3.22;;;25.70;56.50;;;;;;4492567;31;20083;-72
2022/06/30 07:58:47;;;;;;;2.97;2.50;;;25.70;56.60;;;;;;4493625;31;20073;-68
2022/06/30 08:01:13;;;;;;;6.40;2.80;;;25.80;56.80;;;;;;4493438;31;20584;-69
2022/06/30 08:03:39;;;;;;;4.15;3.05;;;25.80;56.80;;;;;;4493766;31;20203;-69
2022/06/30 08:06:05;;;;;;;9.15;3.00;;;25.90;57.00;;;;;;4493493;31;20132;-70
2022/06/30 08:08:31;;;;;;;8.70;3.10;;;25.90;57.00;;;;;;4493226;31;20091;-70
2022/06/30 08:10:56;;;;;;;4.25;3.20;;;26.00;57.20;;;;;;4493600;31;20073;-68
2022/06/30 08:13:23;;;;;;;3.95;2.83;;;26.00;57.20;;;;;;4493368;31;20234;-68
2022/06/30 08:15:49;;;;;;;4.55;3.55;;;26.00;57.20;;;;;;4493324;31;20065;-68
2022/06/30 08:18:15;;;;;;;5.50;3.13;;;26.10;57.30;;;;;;4493553;31;20095;-68
2022/06/30 08:20:41;;;;;;;5.63;3.17;;;26.20;57.30;;;;;;4492098;31;20084;-68
2022/06/30 08:23:07;;;;;;;7.65;3.50;;;26.20;57.20;;;;;;4491831;31;20079;-68
2022/06/30 08:25:33;;;;;;;4.35;3.30;;;26.20;57.10;;;;;;4493266;31;20084;-68
2022/06/30 08:27:59;;;;;;;4.90;3.33;;;26.30;57.30;;;;;;4493156;31;20120;-68
2022/06/30 08:30:25;;;;;;;5.78;3.15;;;26.30;57.20;;;;;;4491946;31;20637;-67
2022/06/30 08:32:51;;;;;;;8.75;3.35;;;26.30;57.20;;;;;;4493400;31;20245;-68
2022/06/30 08:35:17;;;;;;;3.70;3.40;;;26.40;57.20;;;;;;4492954;31;20079;-67
2022/06/30 08:37:43;;;;;;;3.72;3.42;;;26.50;57.40;;;;;;4492706;31;20077;-68
2022/06/30 08:42:55;;;;;;;4.38;3.47;;;26.50;57.10;;;;;;4493264;31;20180;-67
2022/06/30 08:45:24;;;;;;;7.75;3.53;;;26.60;57.10;;;;;;4492473;31;20068;-67
2022/06/30 08:47:50;;;;;;;4.32;3.42;;;26.60;57.20;;;;;;4492857;31;20072;-67
2022/06/30 08:50:18;;;;;;;5.85;3.38;;;26.60;57.20;;;;;;4492405;31;20169;-67
2022/06/30 08:52:53;;;;;;;5.05;3.67;;;26.70;57.20;;;;;;4492868;31;20092;-67
2022/06/30 08:55:29;;;;;;;6.30;3.90;;;26.70;57.20;;;;;;4492853;31;20073;-67
2022/06/30 08:58:03;;;;;;;5.70;3.40;;;26.80;57.30;;;;;;4492788;31;20077;-68
2022/06/30 09:00:30;;;;;;;7.00;3.90;;;26.80;57.30;;;;;;4492546;31;20084;-67
2022/06/30 09:02:56;;;;;;;4.50;3.72;;;26.80;57.20;;;;;;4491343;31;20077;-68
2022/06/30 09:05:22;;;;;;;5.28;3.70;;;26.90;57.20;;;;;;4492548;31;20564;-67
2022/06/30 09:07:48;;;;;;;5.38;3.85;;;26.90;57.10;;;;;;4492296;31;20061;-68
2022/06/30 09:10:14;;;;;;;6.97;4.43;;;27.00;56.90;;;;;;4492608;31;20203;-70
2022/06/30 09:12:55;;;;;;;6.30;3.88;;;27.00;56.60;;;;;;4492176;31;20395;-68
2022/06/30 09:15:20;;;;;;;3.85;3.38;;;27.00;56.30;;;;;;4492227;31;20081;-68
2022/06/30 09:17:47;;;;;;;5.75;4.00;;;27.10;56.30;;;;;;4492553;31;20065;-68
2022/06/30 09:20:14;;;;;;;8.20;3.83;;;27.10;56.40;;;;;;4492073;31;20117;-69
2022/06/30 09:22:41;;;;;;;6.22;3.88;;;27.10;56.40;;;;;;4492093;31;20162;-68
2022/06/30 09:25:09;;;;;;;4.88;3.95;;;27.20;56.50;;;;;;4492360;31;20080;-68
2022/06/30 09:27:37;;;;;;;6.25;3.75;;;27.20;56.70;;;;;;4492281;31;20083;-67
2022/06/30 09:30:09;;;;;;;5.30;3.50;;;27.20;56.90;;;;;;4492165;31;20099;-68
2022/06/30 09:32:44;;;;;;;6.18;3.88;;;27.20;56.90;;;;;;4492226;31;20080;-67
2022/06/30 09:35:10;;;;;;;4.60;3.72;;;27.30;57.00;;;;;;4492231;31;20135;-68
2022/06/30 09:37:37;;;;;;;5.35;4.07;;;27.30;57.00;;;;;;4492240;31;20178;-67
2022/06/30 09:40:07;;;;;;;5.25;4.30;;;27.30;57.00;;;;;;4491811;31;20161;-67
2022/06/30 09:42:47;;;;;;;7.45;4.18;;;27.30;56.80;;;;;;4491712;31;20092;-68
2022/06/30 09:45:15;;;;;;;5.57;4.65;;;27.40;56.60;;;;;;4490795;31;20140;-68
2022/06/30 09:47:54;;;;;;;5.18;4.30;;;27.40;56.40;;;;;;4492002;31;20077;-69
2022/06/30 09:50:21;;;;;;;8.90;4.20;;;27.40;56.40;;;;;;4491883;31;20162;-68
2022/06/30 09:53:03;;;;;;;4.60;4.15;;;27.40;56.40;;;;;;4491916;31;20061;-71
2022/06/30 09:55:46;;;;;;;4.78;4.18;;;27.50;56.40;;;;;;4492214;31;20407;-67
2022/06/30 09:58:16;;;;;;;5.85;4.63;;;27.50;56.50;;;;;;4491778;31;20135;-68
2022/06/30 10:00:44;;;;;;;7.93;4.20;;;27.50;56.50;;;;;;4492411;31;20117;-67
2022/06/30 10:03:10;;;;;;;5.43;4.30;;;27.50;56.50;;;;;;4491824;31;20061;-68
2022/06/30 10:05:38;;;;;;;5.75;4.00;;;27.60;56.60;;;;;;4491967;31;20084;-68
2022/06/30 10:08:05;;;;;;;11.55;4.60;;;27.60;56.60;;;;;;4491666;32;20226;-69
2022/06/30 10:10:32;;;;;;;5.32;4.50;;;27.60;56.60;;;;;;4490783;32;20530;-68
2022/06/30 10:12:58;;;;;;;7.55;4.90;;;27.60;56.50;;;;;;4492142;32;20518;-68
2022/06/30 10:15:25;;;;;;;6.72;4.57;;;27.60;56.40;;;;;;4491507;32;20078;-68
2022/06/30 10:17:52;;;;;;;6.07;4.70;;;27.70;56.30;;;;;;4491784;32;20511;-69
2022/06/30 10:20:19;;;;;;;4.95;4.50;;;27.60;56.10;;;;;;4491926;32;20219;-69
2022/06/30 10:22:45;;;;;;;6.97;5.43;;;27.60;56.00;;;;;;4491719;32;20488;-68
2022/06/30 10:25:11;;;;;;;5.97;5.13;;;27.70;56.10;;;;;;4491447;32;20069;-68
2022/06/30 10:27:37;;;;;;;4.95;4.38;;;27.70;56.00;;;;;;4491552;32;20154;-69
2022/06/30 10:30:09;;;;;;;5.15;4.65;;;27.70;56.00;;;;;;4491651;32;20081;-69
2022/06/30 10:32:43;;;;;;;8.18;4.72;;;27.70;56.10;;;;;;4491706;32;20080;-68
2022/06/30 10:35:30;;;;;;;5.45;4.68;;;27.70;56.00;;;;;;4491516;32;20073;-69
2022/06/30 10:38:21;;;;;;;4.90;4.50;;;27.70;56.00;;;;;;4491961;32;20219;-68
2022/06/30 10:40:53;;;;;;;6.50;4.70;;;27.70;56.20;;;;;;4490386;32;20167;-68
2022/06/30 10:43:19;;;;;;;7.65;4.85;;;27.70;56.40;;;;;;4491566;32;20092;-68
2022/06/30 10:45:58;;;;;;;8.43;4.63;;;27.70;56.30;;;;;;4491422;32;20069;-67
2022/06/30 10:48:27;;;;;;;6.60;4.70;;;27.70;56.20;;;;;;4491645;32;20073;-68
2022/06/30 10:50:53;;;;;;;5.05;4.50;;;27.70;56.30;;;;;;4491435;32;20611;-68
2022/06/30 10:53:37;;;;;;;8.55;5.10;;;27.70;56.40;;;;;;4491468;32;20162;-68
2022/06/30 10:56:05;;;;;;;6.57;4.78;;;27.70;56.50;;;;;;4491504;32;20083;-68
2022/06/30 10:58:31;;;;;;;7.00;4.72;;;27.80;56.50;;;;;;4491174;32;20073;-68
2022/06/30 11:01:03;;;;;;;5.75;5.03;;;27.80;56.30;;;;;;4491431;32;20372;-68
2022/06/30 11:03:29;;;;;;;5.70;5.13;;;27.80;56.10;;;;;;4491637;32;20061;-68
2022/06/30 11:05:59;;;;;;;5.28;4.78;;;27.80;56.00;;;;;;4491601;32;20418;-68
2022/06/30 11:08:46;;;;;;;7.80;4.75;;;27.80;56.20;;;;;;4492743;31;20414;-69
2022/06/30 11:11:25;;;;;;;6.43;4.85;;;27.80;56.20;;;;;;4494328;31;20113;-68
2022/06/30 11:14:03;;;;;;;5.90;5.30;;;27.80;56.30;;;;;;4493906;31;20127;-68
2022/06/30 11:16:31;;;;;;;5.53;4.40;;;27.70;56.10;;;;;;4494213;31;20073;-67
2022/06/30 11:18:57;;;;;;;6.43;4.38;;;27.70;56.30;;;;;;4494168;31;20092;-68
2022/06/30 11:21:23;;;;;;;5.40;4.90;;;27.70;56.40;;;;;;4494311;31;20113;-67
2022/06/30 11:23:49;;;;;;;5.95;4.65;;;27.70;56.60;;;;;;4494363;31;20227;-68
2022/06/30 11:29:04;;;;;;;4.93;4.40;;;27.60;56.60;;;;;;4494386;31;20113;-67
2022/06/30 11:31:31;;;;;;;5.60;4.63;;;27.70;56.70;;;;;;4493985;31;20073;-68
2022/06/30 11:34:19;;;;;;;7.68;4.57;;;27.70;56.60;;;;;;4493944;31;20168;-68
2022/06/30 11:36:45;;;;;;;7.07;4.80;;;27.70;56.40;;;;;;4493941;31;20399;-68
2022/06/30 11:39:19;;;;;;;5.38;4.88;;;27.70;56.10;;;;;;4493844;31;20072;-68
2022/06/30 11:44:32;;;;;;;5.10;4.60;;;27.70;55.90;;;;;;4493771;31;20087;-68
2022/06/30 11:47:06;;;;;;;5.75;5.00;;;27.60;56.00;;;;;;4493563;31;20085;-69
2022/06/30 11:49:52;;;;;;;9.80;4.90;;;27.50;56.00;;;;;;4492467;31;20179;-68
2022/06/30 11:52:41;;;;;;;6.30;4.50;;;27.50;56.10;;;;;;4493506;31;20089;-68
2022/06/30 11:55:12;;;;;;;5.97;5.20;;;27.50;56.40;;;;;;4493482;31;20169;-70
2022/06/30 11:57:44;;;;;;;6.67;4.77;;;27.40;56.40;;;;;;4493846;31;20080;-68
2022/06/30 12:00:13;;;;;;;6.60;4.65;;;27.40;56.70;;;;;;4493707;31;20073;-69
2022/06/30 12:02:41;;;;;;;4.93;4.43;;;27.30;56.80;;;;;;4493699;31;20093;-68
2022/06/30 12:05:13;;;;;;;6.57;5.20;;;27.30;57.00;;;;;;4493506;31;20069;-67
2022/06/30 12:07:40;;;;;;;7.10;5.00;;;27.30;57.40;;;;;;4493563;31;20093;-68
2022/06/30 12:10:08;;;;;;;8.05;6.13;;;27.20;57.70;;;;;;4493448;31;20077;-67
2022/06/30 12:12:36;;;;;;;12.68;6.78;;;27.20;58.20;;;;;;4493251;31;20077;-68
2022/06/30 12:15:15;;;;;;;12.25;7.43;;;27.20;59.00;;;;;;4493396;31;20151;-68
2022/06/30 12:17:45;;;;;;;12.02;6.88;;;27.20;59.70;;;;;;4493465;31;20073;-68
2022/06/30 12:20:13;;;;;;;15.60;8.07;;;27.10;60.00;;;;;;4493118;31;20092;-69
2022/06/30 12:22:41;;;;;;;13.15;7.40;;;27.10;60.50;;;;;;4493125;31;20238;-68
2022/06/30 12:25:08;;;;;;;15.77;7.45;;;27.10;60.70;;;;;;4492963;31;20077;-69
2022/06/30 12:27:42;;;;;;;10.40;7.30;;;27.10;61.20;;;;;;4492811;31;20111;-69
2022/06/30 12:30:18;;;;;;;11.80;6.68;;;27.00;61.50;;;;;;4491712;31;20154;-68
2022/06/30 12:32:53;;;;;;;8.20;6.53;;;27.00;61.70;;;;;;4492945;31;20096;-68
2022/06/30 12:35:22;;;;;;;9.30;6.40;;;27.00;61.70;;;;;;4493119;31;20130;-68
2022/06/30 12:37:48;;;;;;;8.85;6.20;;;26.90;61.90;;;;;;4492994;31;20458;-69
2022/06/30 12:40:19;;;;;;;11.18;6.45;;;26.90;61.90;;;;;;4492727;31;20139;-68
2022/06/30 12:42:52;;;;;;;11.20;6.25;;;26.90;62.10;;;;;;4493247;31;20481;-68
2022/06/30 12:45:36;;;;;;;11.68;6.75;;;26.90;62.00;;;;;;4478347;31;20084;-68
2022/06/30 12:48:04;;;;;;;9.80;6.32;;;26.90;61.70;;;;;;4492780;31;20073;-68
2022/06/30 12:50:34;;;;;;;13.05;6.90;;;26.80;62.10;;;;;;4492589;31;20220;-68
2022/06/30 12:53:24;;;;;;;10.18;6.13;;;26.80;62.10;;;;;;4492636;31;20085;-68
2022/06/30 12:56:14;;;;;;;11.77;6.70;;;26.80;62.70;;;;;;4492829;31;20521;-68
2022/06/30 12:58:51;;;;;;;12.00;7.07;;;26.80;62.70;;;;;;4493003;31;20073;-68
2022/06/30 13:01:26;;;;;;;10.77;8.13;;;26.70;62.80;;;;;;4493103;31;20065;-68
2022/06/30 13:04:04;;;;;;;10.77;7.50;;;26.70;63.00;;;;;;4492714;31;20079;-68
2022/06/30 13:06:41;;;;;;;11.10;7.38;;;26.70;63.10;;;;;;4492674;31;20057;-68
2022/06/30 13:09:10;;;;;;;13.43;7.35;;;26.70;63.20;;;;;;4492631;31;20070;-68
2022/06/30 13:11:40;;;;;;;10.77;7.20;;;26.70;63.20;;;;;;4492229;31;20081;-68
2022/06/30 13:14:06;;;;;;;10.13;6.95;;;26.70;63.20;;;;;;4492801;31;20480;-68